Wetterstation Vordersexau
Wetterdaten: Woche 01.10.18 - 07.10.18 (KW40)
Datum Zeit Temp. A. Feuchte A. Luftdruck Regen Wind Richtung Taupunkt Windchill Windben
01.10.2018 00:00 14,3 C 79 % 1011,2 hPa 0,0 l/m 0,0 km/h O-SO 10,7 C 14,3 C 0,0 km/h
01.10.2018 01:00 14,1 C 81 % 1011,5 hPa 0,0 l/m 0,0 km/h N-NO 10,9 C 14,1 C 0,0 km/h
01.10.2018 02:00 13,9 C 76 % 1011,5 hPa 0,0 l/m 0,0 km/h N-NO 9,7 C 13,9 C 0,0 km/h
01.10.2018 03:00 13,2 C 75 % 1010,9 hPa 0,0 l/m 0,0 km/h N-NO 8,9 C 13,2 C 0,0 km/h
01.10.2018 04:00 12,4 C 78 % 1011,0 hPa 0,0 l/m 0,0 km/h N-NW 8,7 C 12,4 C 0,0 km/h
01.10.2018 05:00 12,0 C 76 % 1011,5 hPa 0,0 l/m 0,0 km/h N-NO 7,9 C 12,0 C 0,0 km/h
01.10.2018 06:00 11,5 C 73 % 1012,3 hPa 0,0 l/m 0,0 km/h W 6,8 C 11,5 C 0,0 km/h
01.10.2018 07:00 10,7 C 72 % 1012,9 hPa 0,0 l/m 0,0 km/h W 5,9 C 10,7 C 0,0 km/h
01.10.2018 08:00 10,6 C 73 % 1013,9 hPa 0,0 l/m 0,0 km/h W-NW 6,0 C 10,6 C 0,0 km/h
01.10.2018 09:00 10,8 C 71 % 1014,7 hPa 0,0 l/m 0,0 km/h W-NW 5,8 C 10,8 C 0,0 km/h
01.10.2018 10:00 11,0 C 71 % 1015,5 hPa 0,0 l/m 0,0 km/h NW 5,9 C 11,0 C 0,0 km/h
01.10.2018 11:00 10,3 C 76 % 1016,2 hPa 0,5 l/m 0,0 km/h W-SW 6,3 C 10,3 C 0,0 km/h
01.10.2018 12:00 11,5 C 75 % 1016,6 hPa 0,0 l/m 0,0 km/h S-SO 7,2 C 11,5 C 0,0 km/h
01.10.2018 13:00 10,8 C 75 % 1016,9 hPa 0,0 l/m 0,0 km/h SW 6,5 C 10,8 C 0,0 km/h
01.10.2018 14:00 11,9 C 78 % 1017,0 hPa 0,0 l/m 0,0 km/h W-SW 8,2 C 11,9 C 0,0 km/h
01.10.2018 15:00 12,4 C 75 % 1016,8 hPa 0,0 l/m 0,0 km/h SO 8,1 C 12,4 C 0,0 km/h
01.10.2018 16:00 11,6 C 75 % 1016,6 hPa 0,0 l/m 0,0 km/h W-SW 7,3 C 11,6 C 0,0 km/h
01.10.2018 17:00 13,5 C 71 % 1017,1 hPa 0,0 l/m 0,0 km/h S 8,3 C 13,5 C 0,0 km/h
01.10.2018 18:00 13,1 C 71 % 1017,5 hPa 0,0 l/m 0,0 km/h W-SW 8,0 C 13,1 C 0,0 km/h
01.10.2018 19:00 10,9 C 75 % 1018,6 hPa 0,0 l/m 0,0 km/h W 6,6 C 10,9 C 0,0 km/h
01.10.2018 20:00 10,1 C 81 % 1019,6 hPa 0,5 l/m 0,0 km/h W 7,0 C 10,1 C 0,0 km/h
01.10.2018 21:00 10,1 C 82 % 1020,1 hPa 0,0 l/m 0,0 km/h W-NW 7,2 C 10,1 C 0,0 km/h
01.10.2018 22:00 9,4 C 80 % 1020,3 hPa 0,0 l/m 0,0 km/h W-NW 6,1 C 9,4 C 0,0 km/h
01.10.2018 23:00 8,5 C 81 % 1020,8 hPa 0,0 l/m 0,0 km/h W-NW 5,4 C 8,5 C 0,0 km/h
02.10.2018 00:00 8,5 C 82 % 1021,0 hPa 0,0 l/m 0,0 km/h W-NW 5,6 C 8,5 C 0,0 km/h
02.10.2018 01:00 8,2 C 81 % 1021,0 hPa 0,0 l/m 0,0 km/h NW 5,1 C 8,2 C 0,0 km/h
02.10.2018 02:00 6,4 C 83 % 1021,0 hPa 0,0 l/m 0,0 km/h N-NW 3,7 C 6,4 C 0,0 km/h
02.10.2018 03:00 5,9 C 84 % 1021,1 hPa 0,0 l/m 0,0 km/h N 3,4 C 5,9 C 0,0 km/h
02.10.2018 04:00 5,6 C 84 % 1021,4 hPa 0,0 l/m 0,0 km/h N 3,1 C 5,6 C 0,0 km/h
02.10.2018 05:00 4,7 C 84 % 1021,8 hPa 0,0 l/m 0,0 km/h N 2,2 C 4,7 C 0,0 km/h
02.10.2018 06:00 4,4 C 84 % 1021,6 hPa 0,0 l/m 0,0 km/h N 1,9 C 4,4 C 0,0 km/h
02.10.2018 07:00 4,4 C 84 % 1021,7 hPa 0,0 l/m 0,0 km/h N 1,9 C 4,4 C 0,0 km/h
02.10.2018 08:00 5,9 C 84 % 1021,9 hPa 0,0 l/m 0,0 km/h O 3,4 C 5,9 C 0,0 km/h
02.10.2018 09:00 7,8 C 83 % 1022,2 hPa 0,0 l/m 0,0 km/h S 5,1 C 7,8 C 0,0 km/h
02.10.2018 10:00 9,9 C 81 % 1022,5 hPa 0,0 l/m 0,0 km/h S 6,8 C 9,9 C 0,0 km/h
02.10.2018 11:00 11,8 C 74 % 1022,2 hPa 0,0 l/m 0,0 km/h S-SW 7,3 C 11,8 C 0,0 km/h
02.10.2018 12:00 11,8 C 69 % 1022,2 hPa 0,0 l/m 0,0 km/h SW 6,3 C 11,8 C 0,0 km/h
02.10.2018 13:00 13,2 C 62 % 1021,7 hPa 0,0 l/m 0,0 km/h W-SW 6,1 C 13,2 C 0,0 km/h
02.10.2018 14:00 12,9 C 55 % 1021,3 hPa 0,0 l/m 0,0 km/h S-SW 4,1 C 12,9 C 0,0 km/h
02.10.2018 15:00 12,9 C 56 % 1020,9 hPa 0,0 l/m 0,0 km/h S-SW 4,3 C 12,9 C 0,0 km/h
02.10.2018 16:00 12,3 C 57 % 1021,0 hPa 0,0 l/m 0,0 km/h S 4,0 C 12,3 C 0,0 km/h
02.10.2018 17:00 11,8 C 58 % 1020,8 hPa 0,0 l/m 0,0 km/h W-SW 3,8 C 11,8 C 0,0 km/h
02.10.2018 18:00 11,4 C 62 % 1021,6 hPa 0,0 l/m 0,0 km/h S-SW 4,4 C 11,4 C 0,0 km/h
02.10.2018 19:00 11,3 C 63 % 1021,9 hPa 0,0 l/m 0,0 km/h SW 4,5 C 11,3 C 0,0 km/h
02.10.2018 20:00 11,5 C 63 % 1022,2 hPa 0,0 l/m 0,0 km/h SW 4,7 C 11,5 C 0,0 km/h
02.10.2018 21:00 11,5 C 64 % 1022,8 hPa 0,0 l/m 0,0 km/h S-SW 4,9 C 11,5 C 0,0 km/h
02.10.2018 22:00 11,5 C 64 % 1022,5 hPa 0,0 l/m 0,0 km/h S-SW 4,9 C 11,5 C 0,0 km/h
02.10.2018 23:00 11,6 C 64 % 1022,4 hPa 0,0 l/m 0,0 km/h W-SW 5,0 C 11,6 C 0,0 km/h
03.10.2018 00:00 11,6 C 65 % 1022,3 hPa 0,0 l/m 0,0 km/h S-SW 5,2 C 11,6 C 0,0 km/h
03.10.2018 01:00 11,6 C 66 % 1022,5 hPa 0,0 l/m 0,0 km/h S-SW 5,5 C 11,6 C 0,0 km/h
03.10.2018 02:00 11,6 C 67 % 1022,2 hPa 0,0 l/m 0,0 km/h SW 5,7 C 11,6 C 0,0 km/h
03.10.2018 03:00 11,6 C 68 % 1022,1 hPa 0,0 l/m 0,0 km/h SW 5,9 C 11,6 C 0,0 km/h
03.10.2018 04:00 11,8 C 69 % 1022,1 hPa 0,0 l/m 0,0 km/h S-SW 6,3 C 11,8 C 0,0 km/h
03.10.2018 05:00 11,5 C 70 % 1022,5 hPa 0,0 l/m 0,0 km/h NW 6,2 C 11,5 C 0,0 km/h
03.10.2018 06:00 11,4 C 75 % 1022,5 hPa 0,0 l/m 0,0 km/h SW 7,1 C 11,4 C 0,0 km/h
03.10.2018 07:00 11,4 C 76 % 1023,0 hPa 0,0 l/m 0,0 km/h W-SW 7,3 C 11,4 C 0,0 km/h
03.10.2018 08:00 11,8 C 76 % 1023,7 hPa 0,0 l/m 0,0 km/h SW 7,7 C 11,8 C 0,0 km/h
03.10.2018 09:00 11,2 C 78 % 1024,7 hPa 0,5 l/m 0,0 km/h S-SW 7,5 C 11,2 C 0,0 km/h
03.10.2018 10:00 11,9 C 82 % 1024,7 hPa 0,0 l/m 0,0 km/h S 8,9 C 11,9 C 0,0 km/h
03.10.2018 11:00 13,6 C 80 % 1024,6 hPa 0,0 l/m 0,0 km/h S-SW 10,2 C 13,6 C 0,0 km/h
03.10.2018 12:00 15,5 C 76 % 1024,2 hPa 0,0 l/m 0,0 km/h SO 11,3 C 15,5 C 0,0 km/h
03.10.2018 13:00 15,8 C 73 % 1024,2 hPa 0,0 l/m 0,0 km/h S 11,0 C 15,8 C 0,0 km/h
03.10.2018 14:00 15,8 C 73 % 1024,0 hPa 0,0 l/m 0,0 km/h S-SO 11,0 C 15,8 C 0,0 km/h
03.10.2018 15:00 15,9 C 71 % 1023,9 hPa 0,0 l/m 0,0 km/h S-SO 10,6 C 15,9 C 0,0 km/h
03.10.2018 16:00 15,5 C 71 % 1023,6 hPa 0,0 l/m 0,0 km/h S-SO 10,3 C 15,5 C 0,0 km/h
03.10.2018 17:00 15,0 C 77 % 1023,7 hPa 0,0 l/m 0,0 km/h S-SO 11,0 C 15,0 C 0,0 km/h
03.10.2018 18:00 14,5 C 79 % 1024,1 hPa 0,0 l/m 0,0 km/h SO 10,9 C 14,5 C 0,0 km/h
03.10.2018 19:00 13,5 C 80 % 1024,4 hPa 0,0 l/m 0,0 km/h SO 10,1 C 13,5 C 0,0 km/h
03.10.2018 20:00 12,8 C 81 % 1024,9 hPa 0,0 l/m 0,0 km/h SO 9,6 C 12,8 C 0,0 km/h
03.10.2018 21:00 11,8 C 83 % 1024,9 hPa 0,0 l/m 0,0 km/h SO 9,0 C 11,8 C 0,0 km/h
03.10.2018 22:00 11,3 C 83 % 1025,1 hPa 0,0 l/m 0,0 km/h SO 8,5 C 11,3 C 0,0 km/h
03.10.2018 23:00 11,0 C 83 % 1024,9 hPa 0,0 l/m 0,0 km/h O-SO 8,2 C 11,0 C 0,0 km/h
04.10.2018 00:00 11,1 C 83 % 1024,9 hPa 0,0 l/m 0,0 km/h O-SO 8,3 C 11,1 C 0,0 km/h
04.10.2018 01:00 10,1 C 83 % 1024,9 hPa 0,0 l/m 0,0 km/h O-SO 7,3 C 10,1 C 0,0 km/h
04.10.2018 02:00 9,8 C 83 % 1024,9 hPa 0,0 l/m 0,0 km/h O 7,1 C 9,8 C 0,0 km/h
04.10.2018 03:00 8,9 C 83 % 1024,6 hPa 0,0 l/m 0,0 km/h O-SO 6,2 C 8,9 C 0,0 km/h
04.10.2018 04:00 8,3 C 82 % 1024,4 hPa 0,0 l/m 0,0 km/h SO 5,4 C 8,3 C 0,0 km/h
04.10.2018 05:00 7,9 C 83 % 1024,1 hPa 0,0 l/m 0,0 km/h SO 5,2 C 7,9 C 0,0 km/h
04.10.2018 06:00 6,9 C 83 % 1024,1 hPa 0,0 l/m 0,0 km/h SO 4,2 C 6,9 C 0,0 km/h
04.10.2018 07:00 6,4 C 82 % 1024,1 hPa 0,0 l/m 0,0 km/h N 3,6 C 6,4 C 0,0 km/h
04.10.2018 08:00 7,0 C 81 % 1024,3 hPa 0,0 l/m 0,0 km/h N 4,0 C 7,0 C 0,0 km/h
04.10.2018 09:00 8,4 C 77 % 1024,6 hPa 0,0 l/m 0,0 km/h W-NW 4,6 C 8,4 C 0,0 km/h
04.10.2018 10:00 9,8 C 76 % 1024,5 hPa 0,0 l/m 0,0 km/h W-NW 5,8 C 9,8 C 0,0 km/h
04.10.2018 11:00 10,3 C 77 % 1024,4 hPa 0,0 l/m 0,0 km/h W 6,4 C 10,3 C 0,0 km/h
04.10.2018 12:00 12,8 C 82 % 1023,6 hPa 0,0 l/m 0,0 km/h S 9,8 C 12,8 C 0,0 km/h
04.10.2018 13:00 15,8 C 82 % 1022,5 hPa 0,0 l/m 0,0 km/h W-NW 12,7 C 15,8 C 0,0 km/h
04.10.2018 14:00 18,2 C 74 % 1021,7 hPa 0,0 l/m 0,0 km/h W 13,5 C 18,2 C 0,0 km/h
04.10.2018 15:00 19,6 C 62 % 1021,3 hPa 0,0 l/m 0,0 km/h W-SW 12,1 C 19,6 C 0,0 km/h
04.10.2018 16:00 20,7 C 58 % 1020,8 hPa 0,0 l/m 0,0 km/h SW 12,1 C 20,7 C 0,0 km/h
04.10.2018 17:00 21,4 C 55 % 1020,5 hPa 0,0 l/m 0,0 km/h S-SW 12,0 C 21,4 C 0,0 km/h
04.10.2018 18:00 20,2 C 59 % 1020,6 hPa 0,0 l/m 0,0 km/h S-SO 11,9 C 20,2 C 0,0 km/h
04.10.2018 19:00 14,4 C 74 % 1020,8 hPa 0,0 l/m 0,0 km/h SO 9,8 C 14,4 C 0,0 km/h
04.10.2018 20:00 12,8 C 78 % 1021,1 hPa 0,0 l/m 0,0 km/h SO 9,1 C 12,8 C 0,0 km/h
04.10.2018 21:00 11,1 C 81 % 1020,9 hPa 0,0 l/m 0,0 km/h NO 8,0 C 11,1 C 0,0 km/h
04.10.2018 22:00 10,4 C 82 % 1020,9 hPa 0,0 l/m 0,0 km/h NO 7,5 C 10,4 C 0,0 km/h
04.10.2018 23:00 9,3 C 83 % 1020,9 hPa 0,0 l/m 0,0 km/h NO 6,6 C 9,3 C 0,0 km/h
05.10.2018 00:00 8,3 C 83 % 1020,8 hPa 0,0 l/m 0,0 km/h NO 5,6 C 8,3 C 0,0 km/h
05.10.2018 01:00 7,2 C 83 % 1020,7 hPa 0,0 l/m 0,0 km/h NO 4,5 C 7,2 C 0,0 km/h
05.10.2018 02:00 6,9 C 83 % 1020,1 hPa 0,0 l/m 0,0 km/h NO 4,2 C 6,9 C 0,0 km/h
05.10.2018 03:00 6,4 C 83 % 1019,9 hPa 0,0 l/m 0,0 km/h NO 3,7 C 6,4 C 0,0 km/h
05.10.2018 04:00 5,9 C 83 % 1019,6 hPa 0,0 l/m 0,0 km/h NO 3,2 C 5,9 C 0,0 km/h
05.10.2018 05:00 5,9 C 83 % 1019,4 hPa 0,0 l/m 0,0 km/h NO 3,2 C 5,9 C 0,0 km/h
05.10.2018 06:00 5,9 C 81 % 1019,1 hPa 0,0 l/m 0,0 km/h NO 2,9 C 5,9 C 0,0 km/h
05.10.2018 07:00 5,9 C 81 % 1019,2 hPa 0,0 l/m 0,0 km/h NO 2,9 C 5,9 C 0,0 km/h
05.10.2018 08:00 7,5 C 80 % 1019,3 hPa 0,0 l/m 0,0 km/h SO 4,3 C 7,5 C 0,0 km/h
05.10.2018 09:00 13,8 C 80 % 1019,3 hPa 0,0 l/m 0,0 km/h SO 10,4 C 13,8 C 0,0 km/h
05.10.2018 10:00 15,3 C 74 % 1018,7 hPa 0,0 l/m 0,0 km/h W 10,7 C 15,3 C 0,0 km/h
05.10.2018 11:00 16,6 C 70 % 1018,1 hPa 0,0 l/m 0,0 km/h W-SW 11,1 C 16,6 C 0,0 km/h
05.10.2018 12:00 18,7 C 66 % 1017,5 hPa 0,0 l/m 0,0 km/h W-SW 12,2 C 18,7 C 0,0 km/h
05.10.2018 13:00 20,7 C 60 % 1016,3 hPa 0,0 l/m 0,0 km/h S 12,7 C 20,7 C 0,0 km/h
05.10.2018 14:00 22,1 C 56 % 1015,7 hPa 0,0 l/m 0,0 km/h SW 12,9 C 22,1 C 0,0 km/h
05.10.2018 15:00 23,1 C 52 % 1015,1 hPa 0,0 l/m 0,0 km/h NW 12,7 C 23,1 C 0,0 km/h
05.10.2018 16:00 23,6 C 50 % 1014,4 hPa 0,0 l/m 0,0 km/h NW 12,6 C 23,6 C 0,0 km/h
05.10.2018 17:00 24,8 C 47 % 1013,8 hPa 0,0 l/m 0,0 km/h NW 12,7 C 24,8 C 0,0 km/h
05.10.2018 18:00 21,2 C 58 % 1013,6 hPa 0,0 l/m 0,0 km/h SO 12,6 C 21,2 C 0,0 km/h
05.10.2018 19:00 16,9 C 68 % 1013,9 hPa 0,0 l/m 0,0 km/h O-NO 11,0 C 16,9 C 0,0 km/h
05.10.2018 20:00 15,3 C 75 % 1013,9 hPa 0,0 l/m 0,0 km/h O-NO 10,9 C 15,3 C 0,0 km/h
05.10.2018 21:00 14,2 C 78 % 1013,9 hPa 0,0 l/m 0,0 km/h O-SO 10,4 C 14,2 C 0,0 km/h
05.10.2018 22:00 13,6 C 78 % 1013,9 hPa 0,0 l/m 0,0 km/h O-SO 9,8 C 13,6 C 0,0 km/h
05.10.2018 23:00 12,7 C 81 % 1013,7 hPa 0,0 l/m 0,0 km/h O-SO 9,5 C 12,7 C 0,0 km/h
06.10.2018 00:00 11,8 C 81 % 1013,5 hPa 0,0 l/m 0,0 km/h O-NO 8,6 C 11,8 C 0,0 km/h
06.10.2018 01:00 11,4 C 83 % 1013,2 hPa 0,0 l/m 0,0 km/h O 8,6 C 11,4 C 0,0 km/h
06.10.2018 02:00 11,4 C 83 % 1012,8 hPa 0,0 l/m 0,0 km/h O-NO 8,6 C 11,4 C 0,0 km/h
06.10.2018 03:00 11,0 C 83 % 1012,4 hPa 0,0 l/m 0,0 km/h O-NO 8,2 C 11,0 C 0,0 km/h
06.10.2018 04:00 10,1 C 83 % 1012,1 hPa 0,0 l/m 0,0 km/h O-NO 7,3 C 10,1 C 0,0 km/h
06.10.2018 05:00 9,8 C 83 % 1011,9 hPa 0,0 l/m 0,0 km/h O-NO 7,1 C 9,8 C 0,0 km/h
06.10.2018 06:00 9,8 C 83 % 1011,5 hPa 0,0 l/m 0,0 km/h SO 7,1 C 9,8 C 0,0 km/h
06.10.2018 07:00 10,5 C 82 % 1011,3 hPa 0,0 l/m 0,0 km/h SO 7,6 C 10,5 C 0,0 km/h
06.10.2018 08:00 11,9 C 83 % 1011,5 hPa 0,0 l/m 0,0 km/h O-NO 9,1 C 11,9 C 0,0 km/h
06.10.2018 09:00 13,4 C 81 % 1011,7 hPa 0,0 l/m 0,0 km/h O-NO 10,2 C 13,4 C 0,0 km/h
06.10.2018 10:00 16,1 C 78 % 1011,5 hPa 0,0 l/m 0,0 km/h SO 12,3 C 16,1 C 0,0 km/h
06.10.2018 11:00 18,5 C 74 % 1011,0 hPa 0,0 l/m 0,0 km/h SW 13,8 C 18,5 C 0,0 km/h
06.10.2018 12:00 21,4 C 53 % 1010,5 hPa 0,0 l/m 0,0 km/h S-SW 11,4 C 21,4 C 0,0 km/h
06.10.2018 13:00 22,9 C 48 % 1009,8 hPa 0,0 l/m 0,0 km/h SW 11,3 C 22,9 C 0,0 km/h
06.10.2018 14:00 23,0 C 47 % 1008,8 hPa 0,0 l/m 0,0 km/h S-SO 11,1 C 23,0 C 0,0 km/h
06.10.2018 15:00 24,4 C 46 % 1008,1 hPa 0,0 l/m 0,0 km/h W-SW 12,0 C 24,4 C 0,0 km/h
06.10.2018 16:00 23,6 C 44 % 1007,4 hPa 0,0 l/m 0,0 km/h W-SW 10,6 C 23,6 C 0,0 km/h
06.10.2018 17:00 21,9 C 50 % 1007,1 hPa 0,0 l/m 0,0 km/h W-SW 11,0 C 21,9 C 0,0 km/h
06.10.2018 18:00 20,1 C 58 % 1007,0 hPa 0,0 l/m 0,0 km/h O-SO 11,6 C 20,1 C 0,0 km/h
06.10.2018 19:00 18,4 C 63 % 1007,1 hPa 0,0 l/m 0,0 km/h O-SO 11,2 C 18,4 C 0,0 km/h
06.10.2018 20:00 17,6 C 66 % 1007,3 hPa 0,0 l/m 0,0 km/h O-SO 11,2 C 17,6 C 0,0 km/h
06.10.2018 21:00 16,5 C 71 % 1007,4 hPa 0,0 l/m 0,0 km/h O-SO 11,2 C 16,5 C 0,0 km/h
06.10.2018 22:00 15,4 C 74 % 1007,9 hPa 0,0 l/m 0,0 km/h O 10,8 C 15,4 C 0,0 km/h
06.10.2018 23:00 14,5 C 76 % 1007,7 hPa 0,0 l/m 0,0 km/h O-SO 10,3 C 14,5 C 0,0 km/h
07.10.2018 00:00 13,6 C 78 % 1007,4 hPa 0,0 l/m 0,0 km/h O 9,8 C 13,6 C 0,0 km/h
07.10.2018 01:00 13,0 C 79 % 1007,8 hPa 0,0 l/m 0,0 km/h O 9,4 C 13,0 C 0,0 km/h
07.10.2018 02:00 12,1 C 80 % 1008,1 hPa 0,0 l/m 0,0 km/h O 8,8 C 12,1 C 0,0 km/h
07.10.2018 03:00 11,3 C 82 % 1008,7 hPa 0,0 l/m 0,0 km/h O 8,3 C 11,3 C 0,0 km/h
07.10.2018 04:00 11,6 C 82 % 1008,9 hPa 0,0 l/m 0,0 km/h O-SO 8,6 C 11,6 C 0,0 km/h
07.10.2018 05:00 11,2 C 82 % 1009,5 hPa 0,0 l/m 0,0 km/h O-SO 8,2 C 11,2 C 0,0 km/h
07.10.2018 06:00 10,7 C 83 % 1009,7 hPa 0,0 l/m 0,0 km/h O-SO 7,9 C 10,7 C 0,0 km/h
07.10.2018 07:00 10,6 C 83 % 1010,1 hPa 0,0 l/m 0,0 km/h O-SO 7,8 C 10,6 C 0,0 km/h
07.10.2018 08:00 11,9 C 83 % 1010,6 hPa 0,0 l/m 0,0 km/h O-SO 9,1 C 11,9 C 0,0 km/h
07.10.2018 09:00 17,6 C 74 % 1011,4 hPa 0,0 l/m 0,0 km/h SO 12,9 C 17,6 C 0,0 km/h
07.10.2018 10:00 19,1 C 69 % 1011,9 hPa 0,0 l/m 0,0 km/h W 13,3 C 19,1 C 0,0 km/h
07.10.2018 11:00 19,8 C 67 % 1012,0 hPa 0,0 l/m 0,0 km/h W-NW 13,5 C 19,8 C 0,0 km/h
07.10.2018 12:00 21,2 C 61 % 1012,0 hPa 0,0 l/m 0,0 km/h N-NO 13,4 C 21,2 C 0,0 km/h
07.10.2018 13:00 20,9 C 60 % 1012,4 hPa 0,0 l/m 0,0 km/h N 12,8 C 20,9 C 0,0 km/h
07.10.2018 14:00 21,3 C 60 % 1012,0 hPa 0,0 l/m 0,0 km/h N 13,2 C 21,3 C 0,0 km/h
07.10.2018 15:00 21,3 C 59 % 1011,9 hPa 0,0 l/m 0,0 km/h N-NO 13,0 C 21,3 C 0,0 km/h
07.10.2018 16:00 22,1 C 58 % 1011,9 hPa 0,0 l/m 0,0 km/h N 13,4 C 22,1 C 0,0 km/h
07.10.2018 17:00 21,8 C 59 % 1012,1 hPa 0,0 l/m 0,0 km/h N-NO 13,4 C 21,8 C 0,0 km/h
07.10.2018 18:00 20,1 C 63 % 1012,9 hPa 0,0 l/m 0,0 km/h N-NO 12,8 C 20,1 C 0,0 km/h
07.10.2018 19:00 17,2 C 69 % 1013,9 hPa 0,0 l/m 0,0 km/h N-NO 11,5 C 17,2 C 0,0 km/h
07.10.2018 20:00 15,3 C 78 % 1014,5 hPa 0,0 l/m 0,0 km/h SO 11,5 C 15,3 C 0,0 km/h
07.10.2018 21:00 14,6 C 78 % 1015,1 hPa 0,0 l/m 0,0 km/h SO 10,8 C 14,6 C 0,0 km/h
07.10.2018 22:00 13,3 C 80 % 1015,8 hPa 0,0 l/m 0,0 km/h SO 9,9 C 13,3 C 0,0 km/h
07.10.2018 23:00 12,3 C 81 % 1016,0 hPa 0,0 l/m 0,0 km/h SO 9,1 C 12,3 C 0,0 km/h
Min-Datum _ 02.10.18 06.10.18 06.10.18 - 01.10.18 - 02.10.18 02.10.18 01.10.18
_ Min-Zeit 06:53 16:53 18:53 - 00:53 - 06:53 06:53 00:53
Minimum _ 4,4 C 44 % 1007,0 hPa - 0,0 km/h - 1,9 C 4,4 C 0,0 km/h
Max-Datum _ 05.10.18 02.10.18 03.10.18 01.10.18 01.10.18 - 06.10.18 05.10.18 01.10.18
_ Max-Zeit 17:53 03:53 22:53 11:53 00:53 - 11:53 17:53 00:53
Maximum _ 24,8 C 84 % 1025,1 hPa 0,5 l/m 0,0 km/h
O-SO
- 13,8 C 24,8 C 0,0 km/h
O-SO
Durchschnitt _ 13,1 C 73 % 1017,5 hPa #1,6 l/m 0,0 km/h SO 8,3 C 13,1 C 0,0 km/h
www.sexauwetter.de